sensor_id;sensor_type;location;lat;lon;timestamp;P1;durP1;ratioP1;P2;durP2;ratioP2
42726;SDS011;28372;56.832;60.658;2022-10-31T00:00:54;11.07;;;4.28;;
42726;SDS011;28372;56.832;60.658;2022-10-31T00:03:22;11.68;;;4.63;;
42726;SDS011;28372;56.832;60.658;2022-10-31T00:05:50;11.88;;;4.55;;
42726;SDS011;28372;56.832;60.658;2022-10-31T00:08:17;9.73;;;4.20;;
42726;SDS011;28372;56.832;60.658;2022-10-31T00:10:45;7.80;;;3.75;;
42726;SDS011;28372;56.832;60.658;2022-10-31T00:13:13;9.60;;;3.95;;
42726;SDS011;28372;56.832;60.658;2022-10-31T00:15:41;6.68;;;2.80;;
42726;SDS011;28372;56.832;60.658;2022-10-31T00:18:09;7.93;;;3.65;;
42726;SDS011;28372;56.832;60.658;2022-10-31T00:20:37;8.38;;;4.05;;
42726;SDS011;28372;56.832;60.658;2022-10-31T00:23:06;8.48;;;3.78;;
42726;SDS011;28372;56.832;60.658;2022-10-31T00:25:35;8.02;;;3.60;;
42726;SDS011;28372;56.832;60.658;2022-10-31T00:28:05;6.32;;;2.90;;
42726;SDS011;28372;56.832;60.658;2022-10-31T00:30:33;9.77;;;4.20;;
42726;SDS011;28372;56.832;60.658;2022-10-31T00:33:02;5.28;;;2.10;;
42726;SDS011;28372;56.832;60.658;2022-10-31T00:35:32;7.97;;;3.72;;
42726;SDS011;28372;56.832;60.658;2022-10-31T00:37:59;9.23;;;3.85;;
42726;SDS011;28372;56.832;60.658;2022-10-31T00:40:27;8.85;;;4.15;;
42726;SDS011;28372;56.832;60.658;2022-10-31T00:42:54;9.95;;;4.13;;
42726;SDS011;28372;56.832;60.658;2022-10-31T00:45:22;6.30;;;3.42;;
42726;SDS011;28372;56.832;60.658;2022-10-31T00:47:50;11.85;;;4.15;;
42726;SDS011;28372;56.832;60.658;2022-10-31T00:50:17;8.75;;;3.83;;
42726;SDS011;28372;56.832;60.658;2022-10-31T00:52:45;8.38;;;3.95;;
42726;SDS011;28372;56.832;60.658;2022-10-31T00:55:12;7.85;;;3.30;;
42726;SDS011;28372;56.832;60.658;2022-10-31T00:57:39;8.45;;;3.53;;
42726;SDS011;28372;56.832;60.658;2022-10-31T01:00:07;6.18;;;2.92;;
42726;SDS011;28372;56.832;60.658;2022-10-31T01:02:35;8.80;;;3.60;;
42726;SDS011;28372;56.832;60.658;2022-10-31T01:05:03;9.52;;;3.58;;
42726;SDS011;28372;56.832;60.658;2022-10-31T01:07:31;5.47;;;2.33;;
42726;SDS011;28372;56.832;60.658;2022-10-31T01:09:59;8.00;;;3.13;;
42726;SDS011;28372;56.832;60.658;2022-10-31T01:12:28;6.70;;;3.20;;
42726;SDS011;28372;56.832;60.658;2022-10-31T01:14:56;6.20;;;2.83;;
42726;SDS011;28372;56.832;60.658;2022-10-31T01:17:23;4.88;;;1.95;;
42726;SDS011;28372;56.832;60.658;2022-10-31T01:19:51;6.00;;;2.75;;
42726;SDS011;28372;56.832;60.658;2022-10-31T01:22:18;8.07;;;3.53;;
42726;SDS011;28372;56.832;60.658;2022-10-31T01:24:45;8.45;;;3.40;;
42726;SDS011;28372;56.832;60.658;2022-10-31T01:27:13;5.80;;;2.65;;
42726;SDS011;28372;56.832;60.658;2022-10-31T01:29:40;5.97;;;2.78;;
42726;SDS011;28372;56.832;60.658;2022-10-31T01:32:08;7.82;;;3.85;;
42726;SDS011;28372;56.832;60.658;2022-10-31T01:34:35;10.88;;;4.20;;
42726;SDS011;28372;56.832;60.658;2022-10-31T01:37:02;8.23;;;3.33;;
42726;SDS011;28372;56.832;60.658;2022-10-31T01:39:32;7.15;;;2.40;;
42726;SDS011;28372;56.832;60.658;2022-10-31T01:42:00;6.85;;;3.33;;
42726;SDS011;28372;56.832;60.658;2022-10-31T01:46:59;7.78;;;3.47;;
42726;SDS011;28372;56.832;60.658;2022-10-31T01:52:06;7.00;;;2.72;;
42726;SDS011;28372;56.832;60.658;2022-10-31T01:54:42;9.63;;;3.40;;
42726;SDS011;28372;56.832;60.658;2022-10-31T01:57:14;7.18;;;3.60;;
42726;SDS011;28372;56.832;60.658;2022-10-31T01:59:44;9.02;;;2.97;;
42726;SDS011;28372;56.832;60.658;2022-10-31T02:02:15;9.95;;;4.10;;
42726;SDS011;28372;56.832;60.658;2022-10-31T02:04:45;8.60;;;4.18;;
42726;SDS011;28372;56.832;60.658;2022-10-31T02:07:18;9.10;;;2.92;;
42726;SDS011;28372;56.832;60.658;2022-10-31T02:09:57;8.10;;;3.85;;
42726;SDS011;28372;56.832;60.658;2022-10-31T02:12:29;10.95;;;4.28;;
42726;SDS011;28372;56.832;60.658;2022-10-31T02:14:59;8.15;;;3.78;;
42726;SDS011;28372;56.832;60.658;2022-10-31T02:17:29;15.20;;;3.78;;
42726;SDS011;28372;56.832;60.658;2022-10-31T02:28:13;8.27;;;3.85;;
42726;SDS011;28372;56.832;60.658;2022-10-31T02:31:12;10.48;;;4.10;;
42726;SDS011;28372;56.832;60.658;2022-10-31T02:33:50;10.07;;;3.95;;
42726;SDS011;28372;56.832;60.658;2022-10-31T02:39:26;8.82;;;3.75;;
42726;SDS011;28372;56.832;60.658;2022-10-31T02:45:07;11.07;;;4.13;;
42726;SDS011;28372;56.832;60.658;2022-10-31T02:47:38;9.07;;;3.92;;
42726;SDS011;28372;56.832;60.658;2022-10-31T02:50:19;8.68;;;4.40;;
42726;SDS011;28372;56.832;60.658;2022-10-31T02:52:51;9.27;;;3.25;;
42726;SDS011;28372;56.832;60.658;2022-10-31T02:57:53;10.85;;;4.78;;
42726;SDS011;28372;56.832;60.658;2022-10-31T03:00:24;8.68;;;3.45;;
42726;SDS011;28372;56.832;60.658;2022-10-31T03:03:12;11.30;;;4.13;;
42726;SDS011;28372;56.832;60.658;2022-10-31T03:08:54;10.65;;;5.40;;
42726;SDS011;28372;56.832;60.658;2022-10-31T03:11:32;10.60;;;4.60;;
42726;SDS011;28372;56.832;60.658;2022-10-31T03:14:12;7.93;;;4.38;;
42726;SDS011;28372;56.832;60.658;2022-10-31T03:16:52;6.72;;;3.63;;
42726;SDS011;28372;56.832;60.658;2022-10-31T03:19:39;4.13;;;2.03;;
42726;SDS011;28372;56.832;60.658;2022-10-31T03:22:15;6.72;;;2.80;;
42726;SDS011;28372;56.832;60.658;2022-10-31T03:24:45;8.90;;;3.50;;
42726;SDS011;28372;56.832;60.658;2022-10-31T03:27:20;8.45;;;4.32;;
42726;SDS011;28372;56.832;60.658;2022-10-31T03:29:52;9.63;;;3.63;;
42726;SDS011;28372;56.832;60.658;2022-10-31T03:32:27;7.38;;;3.72;;
42726;SDS011;28372;56.832;60.658;2022-10-31T03:35:12;10.23;;;4.68;;
42726;SDS011;28372;56.832;60.658;2022-10-31T03:37:42;9.10;;;4.28;;
42726;SDS011;28372;56.832;60.658;2022-10-31T03:40:14;8.73;;;4.13;;
42726;SDS011;28372;56.832;60.658;2022-10-31T03:42:44;7.57;;;3.47;;
42726;SDS011;28372;56.832;60.658;2022-10-31T03:45:22;6.30;;;2.92;;
42726;SDS011;28372;56.832;60.658;2022-10-31T03:47:53;9.63;;;4.30;;
42726;SDS011;28372;56.832;60.658;2022-10-31T03:50:21;9.82;;;4.55;;
42726;SDS011;28372;56.832;60.658;2022-10-31T03:52:55;6.75;;;3.33;;
42726;SDS011;28372;56.832;60.658;2022-10-31T03:55:34;10.55;;;3.78;;
42726;SDS011;28372;56.832;60.658;2022-10-31T03:58:21;7.80;;;3.80;;
42726;SDS011;28372;56.832;60.658;2022-10-31T04:00:55;7.28;;;3.08;;
42726;SDS011;28372;56.832;60.658;2022-10-31T04:03:31;8.05;;;2.53;;
42726;SDS011;28372;56.832;60.658;2022-10-31T04:06:03;8.95;;;4.22;;
42726;SDS011;28372;56.832;60.658;2022-10-31T04:08:44;8.88;;;4.32;;
42726;SDS011;28372;56.832;60.658;2022-10-31T04:11:18;7.68;;;3.60;;
42726;SDS011;28372;56.832;60.658;2022-10-31T04:14:10;10.90;;;4.75;;
42726;SDS011;28372;56.832;60.658;2022-10-31T04:16:40;7.95;;;3.55;;
42726;SDS011;28372;56.832;60.658;2022-10-31T04:19:11;6.53;;;2.80;;
42726;SDS011;28372;56.832;60.658;2022-10-31T04:21:39;10.80;;;4.35;;
42726;SDS011;28372;56.832;60.658;2022-10-31T04:24:10;6.32;;;2.75;;
42726;SDS011;28372;56.832;60.658;2022-10-31T04:26:39;7.78;;;3.58;;
42726;SDS011;28372;56.832;60.658;2022-10-31T04:29:06;8.85;;;3.83;;
42726;SDS011;28372;56.832;60.658;2022-10-31T04:31:34;8.90;;;4.43;;
42726;SDS011;28372;56.832;60.658;2022-10-31T04:34:01;8.57;;;3.50;;
42726;SDS011;28372;56.832;60.658;2022-10-31T04:36:29;6.45;;;3.00;;
42726;SDS011;28372;56.832;60.658;2022-10-31T04:38:56;6.53;;;3.38;;
42726;SDS011;28372;56.832;60.658;2022-10-31T04:41:46;8.15;;;3.47;;
42726;SDS011;28372;56.832;60.658;2022-10-31T04:44:14;6.53;;;3.22;;
42726;SDS011;28372;56.832;60.658;2022-10-31T04:46:46;6.43;;;2.70;;
42726;SDS011;28372;56.832;60.658;2022-10-31T04:49:13;6.28;;;3.33;;
42726;SDS011;28372;56.832;60.658;2022-10-31T04:51:41;8.07;;;3.28;;
42726;SDS011;28372;56.832;60.658;2022-10-31T04:54:08;4.20;;;1.33;;
42726;SDS011;28372;56.832;60.658;2022-10-31T04:56:54;6.95;;;3.15;;
42726;SDS011;28372;56.832;60.658;2022-10-31T04:59:22;4.10;;;2.03;;
42726;SDS011;28372;56.832;60.658;2022-10-31T05:01:53;7.78;;;3.25;;
42726;SDS011;28372;56.832;60.658;2022-10-31T05:04:37;8.63;;;3.92;;
42726;SDS011;28372;56.832;60.658;2022-10-31T05:07:04;4.45;;;2.42;;
42726;SDS011;28372;56.832;60.658;2022-10-31T05:09:32;7.88;;;3.75;;
42726;SDS011;28372;56.832;60.658;2022-10-31T05:11:59;6.68;;;2.58;;
42726;SDS011;28372;56.832;60.658;2022-10-31T05:14:45;6.65;;;3.10;;
42726;SDS011;28372;56.832;60.658;2022-10-31T05:17:43;9.65;;;3.83;;
42726;SDS011;28372;56.832;60.658;2022-10-31T05:20:31;7.72;;;2.80;;
42726;SDS011;28372;56.832;60.658;2022-10-31T05:23:02;6.63;;;3.10;;
42726;SDS011;28372;56.832;60.658;2022-10-31T05:25:29;7.60;;;3.05;;
42726;SDS011;28372;56.832;60.658;2022-10-31T05:28:01;7.53;;;3.78;;
42726;SDS011;28372;56.832;60.658;2022-10-31T05:30:30;7.63;;;3.50;;
42726;SDS011;28372;56.832;60.658;2022-10-31T05:32:58;8.25;;;3.83;;
42726;SDS011;28372;56.832;60.658;2022-10-31T05:38:31;4.65;;;2.22;;
42726;SDS011;28372;56.832;60.658;2022-10-31T05:41:07;6.13;;;3.03;;
42726;SDS011;28372;56.832;60.658;2022-10-31T05:43:37;5.75;;;2.75;;
42726;SDS011;28372;56.832;60.658;2022-10-31T05:46:06;7.50;;;2.95;;
42726;SDS011;28372;56.832;60.658;2022-10-31T05:49:05;7.22;;;3.35;;
42726;SDS011;28372;56.832;60.658;2022-10-31T05:52:08;6.72;;;3.58;;
42726;SDS011;28372;56.832;60.658;2022-10-31T05:54:43;6.38;;;3.20;;
42726;SDS011;28372;56.832;60.658;2022-10-31T05:57:10;7.97;;;3.40;;
42726;SDS011;28372;56.832;60.658;2022-10-31T05:59:38;7.28;;;3.50;;
42726;SDS011;28372;56.832;60.658;2022-10-31T06:02:06;6.50;;;3.42;;
42726;SDS011;28372;56.832;60.658;2022-10-31T06:05:12;5.72;;;2.85;;
42726;SDS011;28372;56.832;60.658;2022-10-31T06:07:40;7.55;;;3.50;;
42726;SDS011;28372;56.832;60.658;2022-10-31T06:10:09;8.77;;;4.35;;
42726;SDS011;28372;56.832;60.658;2022-10-31T06:12:38;7.20;;;3.10;;
42726;SDS011;28372;56.832;60.658;2022-10-31T06:15:18;6.60;;;3.13;;
42726;SDS011;28372;56.832;60.658;2022-10-31T06:18:01;5.80;;;3.20;;
42726;SDS011;28372;56.832;60.658;2022-10-31T06:20:43;3.60;;;1.87;;
42726;SDS011;28372;56.832;60.658;2022-10-31T06:23:11;6.00;;;2.97;;
42726;SDS011;28372;56.832;60.658;2022-10-31T06:25:40;6.55;;;2.15;;
42726;SDS011;28372;56.832;60.658;2022-10-31T06:28:10;6.63;;;3.20;;
42726;SDS011;28372;56.832;60.658;2022-10-31T06:31:00;5.88;;;2.63;;
42726;SDS011;28372;56.832;60.658;2022-10-31T06:33:30;5.93;;;2.70;;
42726;SDS011;28372;56.832;60.658;2022-10-31T06:36:00;5.38;;;2.58;;
42726;SDS011;28372;56.832;60.658;2022-10-31T06:38:28;6.72;;;2.78;;
42726;SDS011;28372;56.832;60.658;2022-10-31T06:40:57;5.07;;;3.00;;
42726;SDS011;28372;56.832;60.658;2022-10-31T06:43:26;5.10;;;2.40;;
42726;SDS011;28372;56.832;60.658;2022-10-31T06:46:16;5.55;;;2.55;;
42726;SDS011;28372;56.832;60.658;2022-10-31T06:49:06;3.97;;;2.15;;
42726;SDS011;28372;56.832;60.658;2022-10-31T06:51:41;5.30;;;2.60;;
42726;SDS011;28372;56.832;60.658;2022-10-31T06:54:09;6.97;;;2.88;;
42726;SDS011;28372;56.832;60.658;2022-10-31T06:56:36;3.63;;;2.13;;
42726;SDS011;28372;56.832;60.658;2022-10-31T06:59:04;3.47;;;1.75;;
42726;SDS011;28372;56.832;60.658;2022-10-31T07:01:51;5.57;;;2.45;;
42726;SDS011;28372;56.832;60.658;2022-10-31T07:04:19;5.95;;;2.45;;
42726;SDS011;28372;56.832;60.658;2022-10-31T07:06:47;4.57;;;2.35;;
42726;SDS011;28372;56.832;60.658;2022-10-31T07:09:18;5.20;;;1.80;;
42726;SDS011;28372;56.832;60.658;2022-10-31T07:11:47;4.13;;;1.90;;
42726;SDS011;28372;56.832;60.658;2022-10-31T07:14:14;4.50;;;2.10;;
42726;SDS011;28372;56.832;60.658;2022-10-31T07:16:42;3.83;;;1.80;;
42726;SDS011;28372;56.832;60.658;2022-10-31T07:19:13;3.90;;;2.17;;
42726;SDS011;28372;56.832;60.658;2022-10-31T07:21:41;3.75;;;2.00;;
42726;SDS011;28372;56.832;60.658;2022-10-31T07:24:12;3.10;;;1.70;;
42726;SDS011;28372;56.832;60.658;2022-10-31T07:26:43;4.20;;;1.88;;
42726;SDS011;28372;56.832;60.658;2022-10-31T07:29:13;3.65;;;1.90;;
42726;SDS011;28372;56.832;60.658;2022-10-31T07:31:41;3.75;;;2.08;;
42726;SDS011;28372;56.832;60.658;2022-10-31T07:34:14;3.63;;;2.10;;
42726;SDS011;28372;56.832;60.658;2022-10-31T07:37:00;3.65;;;1.95;;
42726;SDS011;28372;56.832;60.658;2022-10-31T07:39:29;3.55;;;1.65;;
42726;SDS011;28372;56.832;60.658;2022-10-31T07:41:58;4.15;;;2.10;;
42726;SDS011;28372;56.832;60.658;2022-10-31T07:44:26;3.33;;;1.48;;
42726;SDS011;28372;56.832;60.658;2022-10-31T07:47:00;3.03;;;1.60;;
42726;SDS011;28372;56.832;60.658;2022-10-31T07:49:47;5.90;;;2.58;;
42726;SDS011;28372;56.832;60.658;2022-10-31T07:52:35;2.58;;;1.33;;
42726;SDS011;28372;56.832;60.658;2022-10-31T07:55:22;4.18;;;1.90;;
42726;SDS011;28372;56.832;60.658;2022-10-31T07:57:59;5.53;;;2.30;;
42726;SDS011;28372;56.832;60.658;2022-10-31T08:00:29;3.38;;;1.70;;
42726;SDS011;28372;56.832;60.658;2022-10-31T08:05:45;3.65;;;2.03;;
42726;SDS011;28372;56.832;60.658;2022-10-31T08:08:31;3.10;;;1.58;;
42726;SDS011;28372;56.832;60.658;2022-10-31T08:11:04;3.08;;;1.50;;
42726;SDS011;28372;56.832;60.658;2022-10-31T08:13:33;3.28;;;1.73;;
42726;SDS011;28372;56.832;60.658;2022-10-31T08:16:02;4.05;;;1.67;;
42726;SDS011;28372;56.832;60.658;2022-10-31T08:18:35;4.05;;;1.88;;
42726;SDS011;28372;56.832;60.658;2022-10-31T08:21:11;3.90;;;1.50;;
42726;SDS011;28372;56.832;60.658;2022-10-31T08:23:38;3.42;;;1.70;;
42726;SDS011;28372;56.832;60.658;2022-10-31T08:26:07;2.58;;;1.50;;
42726;SDS011;28372;56.832;60.658;2022-10-31T08:28:35;5.38;;;2.00;;
42726;SDS011;28372;56.832;60.658;2022-10-31T08:31:02;2.85;;;1.58;;
42726;SDS011;28372;56.832;60.658;2022-10-31T08:33:39;3.20;;;1.67;;
42726;SDS011;28372;56.832;60.658;2022-10-31T08:36:19;2.72;;;1.60;;
42726;SDS011;28372;56.832;60.658;2022-10-31T08:38:50;3.55;;;1.50;;
42726;SDS011;28372;56.832;60.658;2022-10-31T08:41:27;3.28;;;1.63;;
42726;SDS011;28372;56.832;60.658;2022-10-31T08:43:55;4.43;;;1.80;;
42726;SDS011;28372;56.832;60.658;2022-10-31T08:46:22;3.72;;;2.03;;
42726;SDS011;28372;56.832;60.658;2022-10-31T08:48:50;3.88;;;1.95;;
42726;SDS011;28372;56.832;60.658;2022-10-31T08:51:18;3.05;;;1.67;;
42726;SDS011;28372;56.832;60.658;2022-10-31T08:53:56;2.97;;;1.77;;
42726;SDS011;28372;56.832;60.658;2022-10-31T08:57:02;3.50;;;1.92;;
42726;SDS011;28372;56.832;60.658;2022-10-31T09:00:03;3.35;;;1.90;;
42726;SDS011;28372;56.832;60.658;2022-10-31T09:03:11;3.58;;;1.80;;
42726;SDS011;28372;56.832;60.658;2022-10-31T16:22:29;8.50;;;5.22;;
42726;SDS011;28372;56.832;60.658;2022-10-31T16:25:36;6.28;;;3.83;;
42726;SDS011;28372;56.832;60.658;2022-10-31T16:28:04;6.57;;;3.10;;
42726;SDS011;28372;56.832;60.658;2022-10-31T16:30:53;7.43;;;4.10;;
42726;SDS011;28372;56.832;60.658;2022-10-31T16:33:32;5.90;;;3.65;;
42726;SDS011;28372;56.832;60.658;2022-10-31T16:39:02;8.40;;;3.67;;
42726;SDS011;28372;56.832;60.658;2022-10-31T16:41:30;6.88;;;3.65;;
42726;SDS011;28372;56.832;60.658;2022-10-31T16:44:01;6.55;;;3.92;;
42726;SDS011;28372;56.832;60.658;2022-10-31T16:46:31;7.05;;;4.15;;
42726;SDS011;28372;56.832;60.658;2022-10-31T16:48:58;6.78;;;3.85;;
42726;SDS011;28372;56.832;60.658;2022-10-31T16:51:26;8.38;;;4.47;;
42726;SDS011;28372;56.832;60.658;2022-10-31T16:53:53;8.32;;;4.15;;
42726;SDS011;28372;56.832;60.658;2022-10-31T16:56:23;8.48;;;4.90;;
42726;SDS011;28372;56.832;60.658;2022-10-31T16:58:57;8.25;;;4.30;;
42726;SDS011;28372;56.832;60.658;2022-10-31T17:01:35;9.80;;;4.70;;
42726;SDS011;28372;56.832;60.658;2022-10-31T17:04:03;9.73;;;4.43;;
42726;SDS011;28372;56.832;60.658;2022-10-31T17:06:30;8.95;;;4.90;;
42726;SDS011;28372;56.832;60.658;2022-10-31T17:08:57;8.98;;;4.25;;
42726;SDS011;28372;56.832;60.658;2022-10-31T17:11:26;9.05;;;4.47;;
42726;SDS011;28372;56.832;60.658;2022-10-31T17:13:58;8.18;;;3.60;;
42726;SDS011;28372;56.832;60.658;2022-10-31T17:16:30;7.25;;;4.07;;
42726;SDS011;28372;56.832;60.658;2022-10-31T17:19:01;6.78;;;3.03;;
42726;SDS011;28372;56.832;60.658;2022-10-31T17:21:30;10.15;;;4.07;;
42726;SDS011;28372;56.832;60.658;2022-10-31T17:23:58;8.23;;;3.80;;
42726;SDS011;28372;56.832;60.658;2022-10-31T17:26:26;6.18;;;3.63;;
42726;SDS011;28372;56.832;60.658;2022-10-31T17:28:54;7.07;;;3.88;;
42726;SDS011;28372;56.832;60.658;2022-10-31T17:31:29;8.18;;;4.28;;
42726;SDS011;28372;56.832;60.658;2022-10-31T17:33:59;10.05;;;4.53;;
42726;SDS011;28372;56.832;60.658;2022-10-31T17:36:30;9.20;;;4.15;;
42726;SDS011;28372;56.832;60.658;2022-10-31T17:38:58;6.85;;;3.92;;
42726;SDS011;28372;56.832;60.658;2022-10-31T17:41:26;7.07;;;3.80;;
42726;SDS011;28372;56.832;60.658;2022-10-31T17:43:54;8.10;;;3.85;;
42726;SDS011;28372;56.832;60.658;2022-10-31T17:46:22;7.30;;;4.18;;
42726;SDS011;28372;56.832;60.658;2022-10-31T17:48:50;8.90;;;4.70;;
42726;SDS011;28372;56.832;60.658;2022-10-31T17:51:20;8.10;;;3.95;;
42726;SDS011;28372;56.832;60.658;2022-10-31T17:53:47;8.63;;;4.63;;
42726;SDS011;28372;56.832;60.658;2022-10-31T17:56:15;7.13;;;3.58;;
42726;SDS011;28372;56.832;60.658;2022-10-31T17:58:43;9.38;;;4.30;;
42726;SDS011;28372;56.832;60.658;2022-10-31T18:01:12;8.35;;;4.32;;
42726;SDS011;28372;56.832;60.658;2022-10-31T18:03:42;8.70;;;3.90;;
42726;SDS011;28372;56.832;60.658;2022-10-31T18:06:10;8.52;;;4.03;;
42726;SDS011;28372;56.832;60.658;2022-10-31T18:08:40;7.55;;;4.30;;
42726;SDS011;28372;56.832;60.658;2022-10-31T18:11:18;9.68;;;4.50;;
42726;SDS011;28372;56.832;60.658;2022-10-31T18:13:58;8.73;;;4.50;;
42726;SDS011;28372;56.832;60.658;2022-10-31T18:16:38;8.63;;;3.90;;
42726;SDS011;28372;56.832;60.658;2022-10-31T18:19:07;7.90;;;4.15;;
42726;SDS011;28372;56.832;60.658;2022-10-31T18:21:39;7.53;;;4.18;;
42726;SDS011;28372;56.832;60.658;2022-10-31T18:24:07;8.27;;;4.63;;
42726;SDS011;28372;56.832;60.658;2022-10-31T18:26:35;8.63;;;4.07;;
42726;SDS011;28372;56.832;60.658;2022-10-31T18:29:03;8.32;;;4.18;;
42726;SDS011;28372;56.832;60.658;2022-10-31T18:31:32;6.38;;;3.10;;
42726;SDS011;28372;56.832;60.658;2022-10-31T18:34:00;8.27;;;4.07;;
42726;SDS011;28372;56.832;60.658;2022-10-31T18:36:27;9.40;;;4.82;;
42726;SDS011;28372;56.832;60.658;2022-10-31T18:38:55;9.48;;;4.55;;
42726;SDS011;28372;56.832;60.658;2022-10-31T18:41:23;7.82;;;3.30;;
42726;SDS011;28372;56.832;60.658;2022-10-31T18:43:50;10.05;;;4.60;;
42726;SDS011;28372;56.832;60.658;2022-10-31T18:46:21;10.88;;;5.05;;
42726;SDS011;28372;56.832;60.658;2022-10-31T18:48:49;10.77;;;5.25;;
42726;SDS011;28372;56.832;60.658;2022-10-31T18:51:16;13.93;;;7.25;;
42726;SDS011;28372;56.832;60.658;2022-10-31T18:53:51;12.30;;;6.25;;
42726;SDS011;28372;56.832;60.658;2022-10-31T18:56:19;10.00;;;5.10;;
42726;SDS011;28372;56.832;60.658;2022-10-31T18:58:54;11.48;;;5.38;;
42726;SDS011;28372;56.832;60.658;2022-10-31T19:01:24;10.02;;;4.80;;
42726;SDS011;28372;56.832;60.658;2022-10-31T19:03:52;10.02;;;4.80;;
42726;SDS011;28372;56.832;60.658;2022-10-31T19:06:22;8.85;;;4.97;;
42726;SDS011;28372;56.832;60.658;2022-10-31T19:08:58;16.30;;;5.35;;
42726;SDS011;28372;56.832;60.658;2022-10-31T19:11:27;14.25;;;5.18;;
42726;SDS011;28372;56.832;60.658;2022-10-31T19:13:58;20.08;;;5.43;;
42726;SDS011;28372;56.832;60.658;2022-10-31T19:16:26;85.35;;;9.63;;
42726;SDS011;28372;56.832;60.658;2022-10-31T19:18:56;80.70;;;9.93;;
42726;SDS011;28372;56.832;60.658;2022-10-31T19:21:26;179.32;;;15.13;;
42726;SDS011;28372;56.832;60.658;2022-10-31T19:23:54;60.70;;;7.70;;
42726;SDS011;28372;56.832;60.658;2022-10-31T19:26:22;269.15;;;20.10;;
42726;SDS011;28372;56.832;60.658;2022-10-31T19:28:51;101.35;;;10.02;;
42726;SDS011;28372;56.832;60.658;2022-10-31T19:31:20;370.70;;;27.17;;
42726;SDS011;28372;56.832;60.658;2022-10-31T19:33:48;42.42;;;7.28;;
42726;SDS011;28372;56.832;60.658;2022-10-31T19:36:16;131.57;;;11.85;;
42726;SDS011;28372;56.832;60.658;2022-10-31T19:38:49;143.20;;;13.27;;
42726;SDS011;28372;56.832;60.658;2022-10-31T19:41:19;189.85;;;16.60;;
42726;SDS011;28372;56.832;60.658;2022-10-31T19:43:49;339.70;;;24.80;;
42726;SDS011;28372;56.832;60.658;2022-10-31T19:46:18;148.50;;;12.90;;
42726;SDS011;28372;56.832;60.658;2022-10-31T19:48:59;96.10;;;10.00;;
42726;SDS011;28372;56.832;60.658;2022-10-31T19:51:27;179.25;;;16.30;;
42726;SDS011;28372;56.832;60.658;2022-10-31T19:53:55;297.90;;;22.42;;
42726;SDS011;28372;56.832;60.658;2022-10-31T19:56:23;127.88;;;12.20;;
42726;SDS011;28372;56.832;60.658;2022-10-31T19:58:51;90.15;;;9.02;;
42726;SDS011;28372;56.832;60.658;2022-10-31T20:01:20;122.43;;;12.23;;
42726;SDS011;28372;56.832;60.658;2022-10-31T20:03:49;216.63;;;16.83;;
42726;SDS011;28372;56.832;60.658;2022-10-31T20:08:50;291.25;;;22.98;;
42726;SDS011;28372;56.832;60.658;2022-10-31T20:11:18;331.20;;;23.27;;
42726;SDS011;28372;56.832;60.658;2022-10-31T20:13:48;351.02;;;25.33;;
42726;SDS011;28372;56.832;60.658;2022-10-31T20:16:15;286.08;;;21.27;;
42726;SDS011;28372;56.832;60.658;2022-10-31T20:18:46;295.50;;;23.70;;
42726;SDS011;28372;56.832;60.658;2022-10-31T20:21:15;270.15;;;19.17;;
42726;SDS011;28372;56.832;60.658;2022-10-31T20:23:48;306.65;;;20.88;;
42726;SDS011;28372;56.832;60.658;2022-10-31T20:26:18;160.48;;;12.73;;
42726;SDS011;28372;56.832;60.658;2022-10-31T20:28:45;215.73;;;17.52;;
42726;SDS011;28372;56.832;60.658;2022-10-31T20:31:14;76.65;;;9.10;;
42726;SDS011;28372;56.832;60.658;2022-10-31T20:33:43;258.63;;;18.60;;
42726;SDS011;28372;56.832;60.658;2022-10-31T20:36:11;102.15;;;10.05;;
42726;SDS011;28372;56.832;60.658;2022-10-31T20:38:39;313.08;;;20.42;;
42726;SDS011;28372;56.832;60.658;2022-10-31T20:41:08;350.98;;;24.10;;
42726;SDS011;28372;56.832;60.658;2022-10-31T20:43:37;253.95;;;17.40;;
42726;SDS011;28372;56.832;60.658;2022-10-31T20:46:07;198.85;;;17.15;;
42726;SDS011;28372;56.832;60.658;2022-10-31T20:48:38;223.68;;;17.10;;
42726;SDS011;28372;56.832;60.658;2022-10-31T20:51:07;346.77;;;22.65;;
42726;SDS011;28372;56.832;60.658;2022-10-31T20:53:37;290.95;;;21.73;;
42726;SDS011;28372;56.832;60.658;2022-10-31T20:56:09;332.08;;;24.05;;
42726;SDS011;28372;56.832;60.658;2022-10-31T20:58:41;175.82;;;13.27;;
42726;SDS011;28372;56.832;60.658;2022-10-31T21:01:14;106.63;;;9.93;;
42726;SDS011;28372;56.832;60.658;2022-10-31T21:03:49;315.05;;;21.25;;
42726;SDS011;28372;56.832;60.658;2022-10-31T21:06:17;180.48;;;15.75;;
42726;SDS011;28372;56.832;60.658;2022-10-31T21:08:47;235.85;;;17.92;;
42726;SDS011;28372;56.832;60.658;2022-10-31T21:11:15;162.90;;;12.85;;
42726;SDS011;28372;56.832;60.658;2022-10-31T21:13:45;157.63;;;13.15;;
42726;SDS011;28372;56.832;60.658;2022-10-31T21:16:18;75.43;;;8.80;;
42726;SDS011;28372;56.832;60.658;2022-10-31T21:18:48;119.15;;;10.32;;
42726;SDS011;28372;56.832;60.658;2022-10-31T21:21:17;253.63;;;19.33;;
42726;SDS011;28372;56.832;60.658;2022-10-31T21:23:46;95.85;;;9.73;;
42726;SDS011;28372;56.832;60.658;2022-10-31T21:26:15;32.72;;;5.78;;
42726;SDS011;28372;56.832;60.658;2022-10-31T21:28:45;51.00;;;6.15;;
42726;SDS011;28372;56.832;60.658;2022-10-31T21:31:14;32.63;;;5.65;;
42726;SDS011;28372;56.832;60.658;2022-10-31T21:33:45;31.50;;;4.75;;
42726;SDS011;28372;56.832;60.658;2022-10-31T21:36:19;70.55;;;8.25;;
42726;SDS011;28372;56.832;60.658;2022-10-31T21:38:50;28.02;;;5.72;;
42726;SDS011;28372;56.832;60.658;2022-10-31T21:41:18;43.30;;;5.65;;
42726;SDS011;28372;56.832;60.658;2022-10-31T21:43:47;21.40;;;4.20;;
42726;SDS011;28372;56.832;60.658;2022-10-31T21:46:17;14.98;;;3.97;;
42726;SDS011;28372;56.832;60.658;2022-10-31T21:48:46;8.32;;;3.60;;
42726;SDS011;28372;56.832;60.658;2022-10-31T21:51:15;45.33;;;6.50;;
42726;SDS011;28372;56.832;60.658;2022-10-31T21:53:45;144.52;;;11.70;;
42726;SDS011;28372;56.832;60.658;2022-10-31T21:56:31;193.85;;;14.85;;
42726;SDS011;28372;56.832;60.658;2022-10-31T21:58:59;80.22;;;8.02;;
42726;SDS011;28372;56.832;60.658;2022-10-31T22:01:27;71.13;;;8.02;;
42726;SDS011;28372;56.832;60.658;2022-10-31T22:03:56;137.85;;;12.70;;
42726;SDS011;28372;56.832;60.658;2022-10-31T22:06:25;118.60;;;10.07;;
42726;SDS011;28372;56.832;60.658;2022-10-31T22:08:53;222.02;;;15.63;;
42726;SDS011;28372;56.832;60.658;2022-10-31T22:11:21;199.30;;;15.45;;
42726;SDS011;28372;56.832;60.658;2022-10-31T22:13:49;18.00;;;4.03;;
42726;SDS011;28372;56.832;60.658;2022-10-31T22:16:18;330.70;;;21.95;;
42726;SDS011;28372;56.832;60.658;2022-10-31T22:18:50;106.18;;;9.60;;
42726;SDS011;28372;56.832;60.658;2022-10-31T22:21:20;113.25;;;11.57;;
42726;SDS011;28372;56.832;60.658;2022-10-31T22:23:53;142.93;;;13.43;;
42726;SDS011;28372;56.832;60.658;2022-10-31T22:26:26;195.70;;;14.30;;
42726;SDS011;28372;56.832;60.658;2022-10-31T22:28:54;183.80;;;15.05;;
42726;SDS011;28372;56.832;60.658;2022-10-31T22:31:28;174.73;;;14.65;;
42726;SDS011;28372;56.832;60.658;2022-10-31T22:33:57;327.60;;;21.65;;
42726;SDS011;28372;56.832;60.658;2022-10-31T22:36:26;69.57;;;7.47;;
42726;SDS011;28372;56.832;60.658;2022-10-31T22:38:55;145.43;;;11.90;;
42726;SDS011;28372;56.832;60.658;2022-10-31T22:41:24;291.38;;;20.90;;
42726;SDS011;28372;56.832;60.658;2022-10-31T22:43:53;322.67;;;22.17;;
42726;SDS011;28372;56.832;60.658;2022-10-31T22:46:23;232.40;;;15.30;;